メインページ
METAR-TAF:

METAR-TAF

空港 :

コスラエ国際空港

コスラエ州, ミクロネシア

緯度: 05-21N, 経度: 162-57E, 海抜: 3m

現時点の気象観測

当レポートは5時間27分前の23:50(UTC)に作成
北/北東の風 15kt
気温 30°C
湿度 75%
気圧 1011 hPa
視程: 16.1km
高度1600ftの千切れ雲あり, 塔状積雲.
高度13000ftの千切れ雲あり
高度30000ftの曇り
弱いにわか雨

METAR: PTSA 192350Z 03015KT 10SM -SHRA BKN016TCU BKN130 OVC300 30/25 A2985 RMK TCU NE-SW LAST

時間: 16:17 (05:17 UTC)

予報

当レポートは5時間47分前の23:30(UTC)に作成
予報は20日の 00時(UTC)から 20日の 24時(UTC)まで有効
の風 8kt
視程: 10km
高度1800ftの雲はほとんどない
高度14000ftの千切れ雲あり
近辺でにわか雨
20日の 00時(UTC)から 20日の 02時(UTC)まで一時的に
高度1800ftの千切れ雲あり
弱いにわか雨

TAF: PTSA 192330Z 2000/2024 09008KT P6SM VCSH FEW018 BKN140 TEMPO 2000/2002 -SHRA BKN018

4,000以上の空港の気象観測と天気予報(METAR報とTAF報)

利用可能な観測所は地図上に黄色い丸と赤い丸で示す。

丸の上にカーソルを重ねると観測所名を参照できる。

次にクリックすると気象観測と天気予報を参照できる。

マップの切り替え:黒色「×」印の緑ボタンをクリックして拡大、「-」印の緑ボタンをクリックして縮小、緑色の三角印をクリックして隣りの地図に切り替え


METAR-TAF: